Terminal Aerodrome Forecast
Issued by NWS El Paso, TX

Home | Current Version | Previous Version | Text Only | Print | Product List | Glossary On
Versions: 1 2 3 4 5 6 7 8 9 10 11 12
000
FTUS44 KEPZ 301100
TAFELP
TAF
KELP 301129Z 3012/3112 01011KT P6SM BKN140
     FM301400 03013G23KT P6SM FEW030 FEW070 SCT130
     FM302300 08010KT P6SM SCT070 BKN120 BKN230
     FM310600 10013KT P6SM VCSH SCT060 BKN120 BKN230=

USA.gov is the U.S. government's official web portal to all federal, state and local government web resources and services.